EPKK/KRK METAR and TAF weather

Enter ICAO airport designator
Station Type Date Time Source
EPKK METAR 2018/04/27 01:00 UTC NOAA

EPKK 270100Z VRB01KT 8000 NSC 04/03 Q1018


Station Type Date Time Source
EPKK Decoded METAR 2018/04/27 01:00 UTC NOAA

Krakow, Poland (EPKK) 50-05N 019-48E 237M
Apr 26, 2018 - 09:00 PM EDT / 2018.04.27 0100 UTC
Wind: Variable at 1 MPH (1 KT):0
Visibility: 4 mile(s):0
Temperature: 39 F (4 C)
Dew Point: 37 F (3 C)
Relative Humidity: 93%
Pressure (altimeter): 30.06 in. Hg (1018 hPa)
ob: EPKK 270100Z VRB01KT 8000 NSC 04/03 Q1018
cycle: 1

Station Type Date Time Source
EPKK TAF 2018/04/26 21:37 UTC NOAA

TAF EPKK 262030Z 2621/2721 26004KT CAVOK
BECMG 2623/2702 3000 BR
BECMG 2702/2704 1200 BR
BECMG 2705/2707 CAVOK
BECMG 2715/2717 09010KT
BECMG 2718/2721 03005KT


Example: see airport list